Hassan, Minnesota
Current Conditions -  °F | °C
As of 5:53 PM on Sunday 21 Dec 2014 (Local Time) from KMIC Reporting Station
Haze Haze  
Wind Chill: 30°   Ceiling: 400
Heat Index: 37°   Visibility: 1.7mi
Dew Point: 35°   Wind: 10mph
Humidity: 93%   Direction: 160°SSE
Pressure: 29.72"   Gusts: NA
Location:  45.1964°N, 93.4758°W
Report Text: KMIC 212353Z 16009KT 1 3/4SM BR OVC004 03/02 A2972 RMK AO2 SLP072 60005 T00280017 10028 20017 57002
Loading
Personal Weather Stations






























Interactive Weather Map New forecast layout! Learn more

10-Day Weather Forecast

Advertisements
Track Severe Weather on mobile